Time;durP1;ratioP1;P1;durP2;ratioP2;P2;SDS_P1;SDS_P2;PMS_P1;PMS_P2;Temp;Humidity;BMP_temperature;BMP_pressure;BME280_temperature;BME280_humidity;BME280_pressure;Samples;Min_cycle;Max_cycle;Signal;HPM_P1;HPM_P2
2022/10/22 00:00:31;;;;;;;9.00;4.88;;;;;;;5.98;84.60;101283.69;10451152;28;20049;-80
2022/10/22 00:05:33;;;;;;;10.85;5.53;;;;;;;6.13;84.55;101276.94;10453101;28;20072;-82
2022/10/22 00:10:37;;;;;;;10.77;5.70;;;;;;;6.00;84.32;101278.00;10450726;28;20045;-81
2022/10/22 00:15:39;;;;;;;13.35;5.95;;;;;;;6.07;84.22;101262.34;10450213;28;20045;-80
2022/10/22 00:20:42;;;;;;;11.45;6.32;;;;;;;6.07;84.83;101256.91;10420401;28;20073;-80
2022/10/22 00:25:44;;;;;;;13.70;6.00;;;;;;;6.10;84.77;101271.97;10441007;28;20046;-81
2022/10/22 00:30:46;;;;;;;10.25;6.30;;;;;;;6.02;84.81;101257.63;10449463;28;20504;-81
2022/10/22 00:35:48;;;;;;;13.43;6.25;;;;;;;5.89;85.65;101248.81;10448945;28;20038;-80
2022/10/22 00:40:50;;;;;;;12.02;6.35;;;;;;;6.03;86.06;101244.81;10432361;28;20400;-81
2022/10/22 00:45:53;;;;;;;16.45;6.85;;;;;;;5.99;86.06;101244.47;10447289;28;20048;-80
2022/10/22 00:51:05;;;;;;;14.77;6.80;;;;;;;6.04;86.93;101249.22;10447028;28;20053;-81
2022/10/22 00:56:08;;;;;;;10.32;5.57;;;;;;;6.22;87.15;101242.81;10446570;28;20045;-80
2022/10/22 01:01:20;;;;;;;19.58;8.63;;;;;;;6.17;86.58;101246.25;10447216;28;20038;-80
2022/10/22 01:06:28;;;;;;;13.38;6.18;;;;;;;6.13;86.77;101239.63;10444814;28;20033;-80
2022/10/22 01:11:39;;;;;;;18.17;7.30;;;;;;;6.19;87.32;101259.63;10423946;28;20040;-80
2022/10/22 01:16:53;;;;;;;14.70;6.63;;;;;;;6.23;87.34;101250.75;10437534;28;148514;-80
2022/10/22 01:22:02;;;;;;;13.93;6.88;;;;;;;6.24;88.11;101249.69;10434266;28;20412;-80
2022/10/22 01:27:19;;;;;;;13.40;6.00;;;;;;;6.39;87.38;101251.09;10445031;28;20076;-80
2022/10/22 01:32:23;;;;;;;12.20;6.83;;;;;;;6.47;87.46;101242.56;10445397;28;20041;-79
2022/10/22 01:37:29;;;;;;;12.57;6.72;;;;;;;6.47;87.97;101243.41;10413481;28;20033;-80
2022/10/22 01:42:31;;;;;;;15.02;6.90;;;;;;;6.51;87.33;101243.75;10445651;28;20451;-80
2022/10/22 01:47:39;;;;;;;13.23;6.60;;;;;;;6.49;87.31;101243.16;10439016;28;20038;-80
2022/10/22 01:52:55;;;;;;;14.30;6.50;;;;;;;6.49;87.64;101232.25;10434215;28;20056;-80
2022/10/22 01:58:13;;;;;;;11.45;5.90;;;;;;;6.53;87.26;101233.41;10451005;28;20034;-79
2022/10/22 02:03:21;;;;;;;12.55;6.25;;;;;;;6.54;88.17;101235.06;10449827;28;20049;-79
2022/10/22 02:08:27;;;;;;;12.07;6.15;;;;;;;6.55;87.08;101236.72;10448521;28;20053;-80
2022/10/22 02:13:46;;;;;;;7.53;5.10;;;;;;;6.55;87.39;101242.19;10445960;28;20033;-82
2022/10/22 02:18:50;;;;;;;15.32;5.75;;;;;;;6.55;87.69;101229.38;10444000;28;20504;-82
2022/10/22 02:23:52;;;;;;;15.27;5.78;;;;;;;6.59;87.97;101229.72;10450633;28;20037;-81
2022/10/22 02:29:00;;;;;;;10.65;5.88;;;;;;;6.54;87.52;101218.72;10448116;28;20064;-81
2022/10/22 02:34:07;;;;;;;10.15;5.28;;;;;;;6.55;88.11;101223.09;10448168;28;20034;-80
2022/10/22 02:39:10;;;;;;;9.97;5.17;;;;;;;6.57;88.01;101197.25;10446019;28;20530;-82
2022/10/22 02:44:12;;;;;;;11.07;5.85;;;;;;;6.56;87.62;101206.50;10445133;28;20420;-81
2022/10/22 02:49:14;;;;;;;12.80;5.68;;;;;;;6.38;87.43;101208.56;10424790;28;20043;-81
2022/10/22 02:54:16;;;;;;;13.32;5.60;;;;;;;6.39;88.69;101211.03;10445082;28;20495;-80
2022/10/22 02:59:24;;;;;;;13.88;5.90;;;;;;;6.46;88.62;101211.75;10445283;28;20128;-80
2022/10/22 03:04:26;;;;;;;11.10;5.83;;;;;;;6.51;88.61;101219.19;10442709;28;20041;-80
2022/10/22 03:09:28;;;;;;;12.02;5.82;;;;;;;6.52;88.68;101212.69;10445790;28;20060;-80
2022/10/22 03:14:31;;;;;;;13.95;6.00;;;;;;;6.52;89.33;101213.50;10443990;28;20680;-80
2022/10/22 03:19:33;;;;;;;11.52;5.57;;;;;;;6.50;89.05;101209.38;10432121;28;20057;-80
2022/10/22 03:24:41;;;;;;;11.95;5.50;;;;;;;6.52;89.01;101209.97;10434822;28;20049;-80
2022/10/22 03:29:43;;;;;;;;;;;;;;;6.46;89.79;101203.56;10429241;28;20504;-80
2022/10/22 03:34:45;;;;;;;14.93;5.93;;;;;;;6.48;89.45;101197.88;10459963;28;19931;-79
2022/10/22 03:39:48;;;;;;;11.43;5.78;;;;;;;6.40;89.43;101201.78;10428393;28;20048;-79
2022/10/22 03:44:50;;;;;;;12.40;5.65;;;;;;;6.54;89.45;101202.34;10433622;28;20038;-82
2022/10/22 03:49:52;;;;;;;10.75;5.60;;;;;;;6.62;88.69;101196.53;10441563;28;20033;-81
2022/10/22 03:54:54;;;;;;;13.13;5.80;;;;;;;6.62;88.41;101189.19;10443878;28;20041;-81
2022/10/22 03:59:57;;;;;;;10.40;5.35;;;;;;;6.53;88.64;101192.53;10445371;28;20052;-80
2022/10/22 04:04:59;;;;;;;13.10;5.80;;;;;;;6.58;88.67;101192.63;10445961;28;20048;-82
2022/10/22 04:10:01;;;;;;;13.38;6.28;;;;;;;6.93;87.72;101196.06;10448342;28;20496;-80
2022/10/22 04:15:04;;;;;;;13.45;6.03;;;;;;;7.20;86.08;101190.03;10452005;28;20045;-81
2022/10/22 04:20:07;;;;;;;12.90;5.97;;;;;;;7.32;85.54;101185.34;10451334;28;20037;-82
2022/10/22 04:25:09;;;;;;;12.45;6.30;;;;;;;7.48;84.42;101186.44;10447717;28;20546;-82
2022/10/22 04:30:12;;;;;;;14.20;6.00;;;;;;;7.60;83.33;101183.59;10449198;28;20037;-82
2022/10/22 04:35:14;;;;;;;11.88;5.95;;;;;;;7.59;83.29;101176.47;10447188;28;20041;-81
2022/10/22 04:40:16;;;;;;;14.95;7.00;;;;;;;7.44;82.89;101177.88;10421716;28;20061;-81
2022/10/22 04:45:19;;;;;;;15.63;5.85;;;;;;;7.48;83.75;101165.41;10448143;28;20053;-81
2022/10/22 04:50:21;;;;;;;15.88;8.05;;;;;;;7.40;83.14;101174.00;10449443;28;20538;-81
2022/10/22 04:55:26;;;;;;;14.90;6.03;;;;;;;7.37;83.54;101166.31;10445681;28;20033;-81
2022/10/22 05:00:31;;;;;;;14.05;5.75;;;;;;;7.33;84.11;101167.88;10447573;28;20057;-81
2022/10/22 05:05:33;;;;;;;12.38;5.93;;;;;;;7.38;83.66;101173.41;10445811;28;20064;-81
2022/10/22 05:10:35;;;;;;;12.20;6.05;;;;;;;7.36;83.01;101172.84;10447791;28;20515;-80
2022/10/22 05:15:37;;;;;;;9.15;4.95;;;;;;;7.18;83.38;101170.34;10447641;28;20508;-80
2022/10/22 05:20:40;;;;;;;11.40;5.60;;;;;;;7.03;83.06;101170.88;10447401;28;20048;-80
2022/10/22 05:25:42;;;;;;;11.23;5.45;;;;;;;6.92;84.37;101156.22;10447552;28;20048;-80
2022/10/22 05:30:54;;;;;;;11.63;5.85;;;;;;;7.21;84.24;101157.03;10448178;28;20053;-80
2022/10/22 05:35:57;;;;;;;11.73;6.25;;;;;;;7.27;84.09;101168.84;10443594;28;20549;-80
2022/10/22 05:41:05;;;;;;;11.13;6.00;;;;;;;7.47;83.80;101173.84;10446582;28;20049;-81
2022/10/22 05:46:13;;;;;;;8.95;4.95;;;;;;;7.47;83.38;101173.84;10448004;28;20049;-81
2022/10/22 05:51:15;;;;;;;12.87;5.40;;;;;;;7.64;82.89;101173.84;10445834;28;20037;-81
2022/10/22 05:56:17;;;;;;;11.95;5.55;;;;;;;7.78;83.23;101161.50;10427815;28;20049;-82
2022/10/22 06:01:23;;;;;;;13.43;6.47;;;;;;;7.74;82.41;101168.53;10443129;28;20099;-81
2022/10/22 06:06:28;;;;;;;12.13;5.90;;;;;;;7.60;82.76;101168.03;10444418;28;20193;-81
2022/10/22 06:11:30;;;;;;;10.95;5.63;;;;;;;7.66;82.94;101169.78;10444968;28;20044;-81
2022/10/22 06:16:32;;;;;;;12.52;5.32;;;;;;;7.71;82.38;101171.78;10444595;28;20420;-74
2022/10/22 06:21:34;;;;;;;10.27;5.63;;;;;;;7.52;82.78;101171.19;10445573;28;20041;-73
2022/10/22 06:26:36;;;;;;;8.57;5.43;;;;;;;7.60;83.38;101175.41;10442913;28;20049;-74
2022/10/22 06:31:39;;;;;;;15.95;6.35;;;;;;;7.60;83.64;101178.13;10436262;28;20052;-74
2022/10/22 06:36:43;;;;;;;12.15;5.47;;;;;;;7.54;84.14;101167.13;10439632;28;20052;-74
2022/10/22 06:41:45;;;;;;;14.48;5.97;;;;;;;7.37;83.64;101170.94;10441054;28;20045;-74
2022/10/22 06:46:51;;;;;;;10.40;5.07;;;;;;;7.47;83.79;101171.94;10442558;28;20508;-73
2022/10/22 06:51:54;;;;;;;12.27;4.65;;;;;;;7.48;84.17;101170.03;10436533;28;20042;-74
2022/10/22 06:56:56;;;;;;;9.88;5.05;;;;;;;7.59;84.23;101165.56;10442233;28;20424;-74
2022/10/22 07:01:58;;;;;;;8.90;4.88;;;;;;;7.56;83.54;101178.63;10442467;28;20435;-73
2022/10/22 07:07:00;;;;;;;11.27;5.03;;;;;;;7.55;83.84;101176.16;10435702;28;20053;-74
2022/10/22 07:12:02;;;;;;;14.18;4.90;;;;;;;7.52;82.98;101180.22;10416960;28;20037;-74
2022/10/22 07:17:05;;;;;;;9.27;4.50;;;;;;;7.64;83.98;101179.31;10439406;28;20041;-73
2022/10/22 07:22:07;;;;;;;8.77;4.10;;;;;;;7.66;83.43;101178.00;10436585;28;20060;-74
2022/10/22 07:27:09;;;;;;;7.97;4.05;;;;;;;7.70;83.12;101181.06;10442812;28;20057;-74
2022/10/22 07:32:11;;;;;;;11.50;4.40;;;;;;;7.65;82.81;101170.06;10437862;28;20041;-73
2022/10/22 07:37:13;;;;;;;10.13;3.67;;;;;;;7.40;82.95;101184.09;10421515;28;20034;-73
2022/10/22 07:42:15;;;;;;;6.13;3.47;;;;;;;7.30;83.62;101184.75;10424792;28;20046;-74
2022/10/22 07:47:18;;;;;;;5.63;3.42;;;;;;;7.37;83.86;101184.59;10449107;28;20049;-74
2022/10/22 07:52:20;;;;;;;8.15;3.83;;;;;;;7.29;83.05;101180.38;10448993;28;20044;-74
2022/10/22 07:57:22;;;;;;;5.22;3.13;;;;;;;7.34;83.90;101185.09;10446190;28;20527;-74
2022/10/22 08:02:24;;;;;;;5.95;3.30;;;;;;;7.28;83.95;101180.59;10448205;28;20041;-74
2022/10/22 08:07:26;;;;;;;6.20;3.40;;;;;;;7.28;84.43;101175.13;10439112;28;20049;-74
2022/10/22 08:12:29;;;;;;;4.80;3.30;;;;;;;7.26;84.30;101175.38;10419959;28;20033;-73
2022/10/22 08:17:31;;;;;;;6.78;3.38;;;;;;;7.18;84.36;101175.78;10480973;28;20415;-72
2022/10/22 08:22:33;;;;;;;7.18;3.25;;;;;;;7.32;83.98;101168.97;10487008;28;20045;-73
2022/10/22 08:27:35;;;;;;;6.57;3.47;;;;;;;7.37;83.60;101162.75;10453259;28;20048;-73
2022/10/22 08:32:38;;;;;;;3.55;2.50;;;;;;;7.54;83.27;101158.94;10451827;28;20061;-74
2022/10/22 08:37:40;;;;;;;5.63;3.00;;;;;;;7.52;82.90;101161.09;10461745;28;20048;-73
2022/10/22 08:42:50;;;;;;;5.65;2.85;;;;;;;7.60;81.97;101157.13;10442841;28;21641;-77
2022/10/22 08:48:16;;;;;;;10.27;2.90;;;;;;;7.65;81.45;101161.84;10451338;28;20415;-73
2022/10/22 08:53:29;;;;;;;5.95;3.00;;;;;;;7.73;81.16;101155.97;10465495;28;20041;-73
2022/10/22 08:58:48;;;;;;;4.72;2.50;;;;;;;7.79;81.09;101154.94;10462330;28;20044;-73
2022/10/22 09:04:05;;;;;;;4.00;2.70;;;;;;;8.23;79.91;101144.94;10464161;28;20585;-74
2022/10/22 09:09:14;;;;;;;3.70;2.28;;;;;;;8.53;78.16;101144.53;10438089;28;20049;-76
2022/10/22 09:14:19;;;;;;;6.28;3.00;;;;;;;8.59;77.46;101140.75;10444307;28;20042;-75
2022/10/22 09:19:49;;;;;;;7.80;3.00;;;;;;;8.70;77.07;101136.25;10436633;28;20053;-73
2022/10/22 09:24:58;;;;;;;5.72;2.80;;;;;;;8.70;76.18;101128.88;10430243;28;20064;-74
2022/10/22 09:30:00;;;;;;;4.45;2.92;;;;;;;8.94;76.44;101118.44;10444144;28;20048;-74
2022/10/22 09:35:09;;;;;;;7.13;3.17;;;;;;;8.99;75.39;101112.19;10449378;28;20524;-75
2022/10/22 09:40:13;;;;;;;8.33;3.30;;;;;;;9.08;74.69;101110.63;10444988;28;20423;-73
2022/10/22 09:45:21;;;;;;;4.07;2.75;;;;;;;8.94;75.45;101103.94;10422082;28;20042;-73
2022/10/22 09:50:54;;;;;;;4.03;2.40;;;;;;;8.87;74.35;101101.41;10433644;28;20045;-73
2022/10/22 09:56:00;;;;;;;3.97;2.25;;;;;;;8.89;74.97;101098.41;10448833;28;20049;-73
2022/10/22 10:01:02;;;;;;;4.25;2.55;;;;;;;8.85;74.71;101100.84;10444625;28;20056;-73
2022/10/22 10:06:06;;;;;;;4.72;2.40;;;;;;;8.59;74.54;101083.31;10461166;28;20038;-73
2022/10/22 10:11:15;;;;;;;3.45;2.28;;;;;;;8.62;74.75;101095.66;10440305;28;20045;-73
2022/10/22 10:16:17;;;;;;;3.25;1.88;;;;;;;8.78;74.70;101086.53;10436555;28;20076;-73
2022/10/22 10:21:32;;;;;;;4.05;1.95;;;;;;;8.80;73.95;101080.78;10440754;28;20041;-73
2022/10/22 10:26:41;;;;;;;2.55;2.17;;;;;;;8.87;73.68;101075.97;10442915;28;20050;-73
2022/10/22 10:32:01;;;;;;;3.33;1.92;;;;;;;8.92;73.12;101081.47;10445852;28;20045;-73
2022/10/22 10:37:25;;;;;;;4.00;2.30;;;;;;;8.98;73.03;101072.22;10441078;28;20424;-73
2022/10/22 10:42:39;;;;;;;4.78;2.08;;;;;;;8.94;73.13;101071.09;10425258;28;20045;-73
2022/10/22 10:48:03;;;;;;;8.77;2.88;;;;;;;8.97;72.63;101065.91;10439182;28;20038;-73
2022/10/22 10:53:30;;;;;;;3.95;2.17;;;;;;;8.86;71.71;101060.63;10430023;28;20444;-73
2022/10/22 10:58:56;;;;;;;5.05;2.45;;;;;;;8.96;71.78;101060.69;10434860;28;20415;-74
2022/10/22 11:04:12;;;;;;;6.30;2.58;;;;;;;9.41;70.55;101051.22;10442541;28;20048;-74
2022/10/22 11:09:24;;;;;;;4.60;2.95;;;;;;;9.13;70.44;101052.34;10440017;28;20420;-73
2022/10/22 11:14:33;;;;;;;5.90;2.17;;;;;;;8.95;70.93;101050.84;10439848;28;20045;-74
2022/10/22 11:19:50;;;;;;;4.38;2.28;;;;;;;8.64;70.68;101047.81;10448109;28;20049;-72
2022/10/22 11:25:13;;;;;;;3.55;2.78;;;;;;;8.48;71.38;101032.31;10432817;28;20412;-74
2022/10/22 11:30:20;;;;;;;3.67;2.38;;;;;;;8.44;71.79;101032.00;10456052;28;20049;-85
2022/10/22 11:35:27;;;;;;;5.77;2.60;;;;;;;8.43;72.29;101022.16;10433209;28;20411;-79
2022/10/22 11:40:37;;;;;;;8.57;3.33;;;;;;;8.41;71.52;101021.59;10451021;28;20053;-80
2022/10/22 11:45:41;;;;;;;4.88;2.65;;;;;;;8.34;71.12;101007.31;10444097;28;20040;-79
2022/10/22 11:50:51;;;;;;;4.50;2.60;;;;;;;8.33;71.80;101002.03;10466142;28;20037;-80
2022/10/22 11:56:03;;;;;;;3.95;2.65;;;;;;;8.34;71.12;100998.28;10450740;28;20056;-73
2022/10/22 12:01:07;;;;;;;3.22;2.40;;;;;;;8.26;70.53;100991.31;10455165;28;20040;-82
2022/10/22 12:06:10;;;;;;;3.40;2.30;;;;;;;8.27;70.67;100984.75;10467479;28;20049;-83
2022/10/22 12:11:18;;;;;;;3.58;2.50;;;;;;;8.24;70.37;100973.53;10446680;28;20537;-80
2022/10/22 12:16:23;;;;;;;5.60;2.17;;;;;;;8.18;70.49;100967.19;10439592;28;20064;-79
2022/10/22 12:21:25;;;;;;;4.13;2.53;;;;;;;8.24;70.59;100965.31;10453438;28;20507;-75
2022/10/22 12:26:30;;;;;;;4.05;2.42;;;;;;;8.27;70.26;100953.88;10447747;28;20049;-76
2022/10/22 12:31:37;;;;;;;3.70;2.80;;;;;;;8.24;69.78;100951.66;10446770;28;20041;-76
2022/10/22 12:36:39;;;;;;;2.97;1.98;;;;;;;8.23;69.09;100950.00;10447039;28;21917;-76
2022/10/22 12:41:42;;;;;;;3.95;2.28;;;;;;;8.25;69.06;100940.47;10445254;28;20052;-78
2022/10/22 12:46:47;;;;;;;4.32;2.45;;;;;;;8.22;69.00;100935.50;10446107;28;20060;-84
2022/10/22 12:51:49;;;;;;;3.80;2.33;;;;;;;8.21;67.36;100927.56;10432445;28;20431;-79
2022/10/22 12:56:53;;;;;;;3.65;2.20;;;;;;;8.19;67.69;100927.00;10446077;28;20041;-76
2022/10/22 13:01:55;;;;;;;3.45;2.30;;;;;;;8.19;67.11;100927.00;10440708;28;20049;-77
2022/10/22 13:07:18;;;;;;;3.25;2.28;;;;;;;8.10;67.14;100907.50;10444949;28;20412;-79
2022/10/22 13:12:25;;;;;;;4.32;2.67;;;;;;;8.08;68.00;100907.75;10435669;28;20041;-79
2022/10/22 13:17:38;;;;;;;3.33;2.13;;;;;;;8.00;66.92;100891.84;10441433;28;20045;-81
2022/10/22 13:22:53;;;;;;;4.55;2.60;;;;;;;7.97;66.62;100894.25;10426141;28;20048;-78
2022/10/22 13:28:00;;;;;;;3.25;2.70;;;;;;;8.00;67.24;100877.34;10459553;28;20611;-77
2022/10/22 13:33:04;;;;;;;3.97;2.50;;;;;;;8.00;66.40;100882.81;10437188;28;20037;-78
2022/10/22 13:38:26;;;;;;;4.68;2.58;;;;;;;7.93;67.29;100885.75;10444763;28;20053;-76
2022/10/22 13:43:28;;;;;;;4.30;2.45;;;;;;;7.88;68.69;100893.91;10432565;28;20045;-76
2022/10/22 13:48:30;;;;;;;4.07;2.38;;;;;;;7.82;68.38;100884.00;10448823;28;20040;-86
2022/10/22 13:53:33;;;;;;;3.67;2.40;;;;;;;8.08;71.75;100885.91;10458793;28;20154;-76
2022/10/22 13:58:35;;;;;;;4.60;2.65;;;;;;;8.38;71.21;100881.84;10445774;28;20380;-76
2022/10/22 14:03:37;;;;;;;4.95;2.95;;;;;;;8.53;70.78;100881.97;10428139;28;20041;-76
2022/10/22 14:08:39;;;;;;;7.47;2.90;;;;;;;8.58;71.03;100872.97;10445786;28;20048;-87
2022/10/22 14:13:41;;;;;;;5.43;2.95;;;;;;;8.49;70.80;100875.34;10415014;28;20045;-86
2022/10/22 14:18:44;;;;;;;3.33;2.33;;;;;;;8.43;71.24;100882.69;10447807;28;20057;-84
2022/10/22 14:23:47;;;;;;;6.10;3.08;;;;;;;8.68;70.99;100873.06;10443752;28;20041;-88
2022/10/22 14:28:49;;;;;;;6.72;3.60;;;;;;;8.95;70.47;100867.47;10435145;28;20056;-90
2022/10/22 14:33:51;;;;;;;5.18;3.20;;;;;;;8.82;71.68;100873.38;10426420;28;20637;-86
2022/10/22 14:38:54;;;;;;;6.60;4.07;;;;;;;9.18;71.42;100872.50;10438496;28;20141;-86
2022/10/22 14:43:58;;;;;;;6.90;3.85;;;;;;;9.36;70.68;100869.31;10423560;28;20451;-87
2022/10/22 14:49:01;;;;;;;8.23;4.13;;;;;;;9.24;69.99;100865.97;10420921;28;20041;-86
2022/10/22 14:54:03;;;;;;;10.10;5.95;;;;;;;9.23;70.63;100856.13;10426041;28;20152;-76
2022/10/22 14:59:06;;;;;;;10.82;5.88;;;;;;;9.06;71.45;100853.56;10421364;28;20064;-84
2022/10/22 15:04:08;;;;;;;10.02;5.10;;;;;;;9.02;70.86;100846.13;10426172;28;20033;-86
2022/10/22 15:09:10;;;;;;;9.15;4.78;;;;;;;9.19;71.44;100841.28;10424259;28;20045;-83
2022/10/22 15:14:14;;;;;;;7.55;3.47;;;;;;;9.27;70.33;100829.84;10423599;28;20048;-85
2022/10/22 15:19:16;;;;;;;5.13;3.13;;;;;;;9.13;70.14;100825.94;10425823;28;20056;-82
2022/10/22 15:24:18;;;;;;;5.00;2.78;;;;;;;9.06;68.92;100820.72;10424636;28;20048;-87
2022/10/22 15:29:20;;;;;;;6.68;2.80;;;;;;;8.73;69.68;100827.38;10432773;28;20033;-82
2022/10/22 15:34:25;;;;;;;7.47;2.88;;;;;;;8.52;69.28;100831.09;10434906;28;20038;-85
2022/10/22 15:39:27;;;;;;;4.68;2.80;;;;;;;8.51;70.61;100821.22;10442909;28;20037;-86
2022/10/22 15:44:30;;;;;;;6.03;2.88;;;;;;;8.83;70.69;100815.66;10443223;28;20431;-87
2022/10/22 15:49:38;;;;;;;6.85;2.80;;;;;;;8.92;71.10;100825.03;10441247;28;20048;-78
2022/10/22 15:54:40;;;;;;;3.65;2.60;;;;;;;9.03;70.46;100817.72;10440141;28;20057;-82
2022/10/22 15:59:42;;;;;;;9.27;3.33;;;;;;;8.87;70.30;100819.53;10410327;28;20044;-75
2022/10/22 16:04:44;;;;;;;5.88;3.13;;;;;;;8.54;70.72;100817.16;10457833;28;20617;-75
2022/10/22 16:09:47;;;;;;;8.38;2.95;;;;;;;8.47;71.93;100817.34;10446269;28;20041;-76
2022/10/22 16:14:49;;;;;;;6.50;3.60;;;;;;;8.50;72.68;100819.56;10441305;28;20030;-77
2022/10/22 16:19:52;;;;;;;7.55;3.35;;;;;;;8.63;72.34;100813.63;10444360;28;20403;-75
2022/10/22 16:24:54;;;;;;;6.05;3.17;;;;;;;8.48;72.45;100802.59;10452132;28;20045;-75
2022/10/22 16:29:56;;;;;;;5.43;2.85;;;;;;;8.29;72.94;100810.34;10448655;28;20049;-76
2022/10/22 16:34:58;;;;;;;5.47;3.20;;;;;;;8.10;72.58;100798.19;10449184;28;20045;-76
2022/10/22 16:40:00;;;;;;;5.28;2.97;;;;;;;8.15;73.00;100800.94;10428312;28;20068;-78
2022/10/22 16:45:03;;;;;;;4.75;3.10;;;;;;;8.34;72.77;100787.75;10452932;28;20490;-79
2022/10/22 16:50:10;;;;;;;5.03;3.10;;;;;;;8.01;73.37;100784.19;10450417;28;20036;-79
2022/10/22 16:55:12;;;;;;;5.45;2.70;;;;;;;8.00;73.42;100796.19;10449088;28;20412;-79
2022/10/22 17:00:14;;;;;;;5.00;2.78;;;;;;;7.90;73.68;100781.63;10449645;28;20459;-82
2022/10/22 17:05:16;;;;;;;5.60;3.25;;;;;;;7.86;74.00;100786.78;10448094;28;20063;-83
2022/10/22 17:10:24;;;;;;;4.22;2.90;;;;;;;8.00;73.82;100779.81;10451398;28;20037;-94
2022/10/22 17:15:26;;;;;;;4.80;2.85;;;;;;;7.86;74.63;100778.59;10447654;28;20512;-74
2022/10/22 17:20:28;;;;;;;5.22;3.10;;;;;;;7.92;74.95;100769.34;10446903;28;20049;-86
2022/10/22 17:25:43;;;;;;;5.72;3.20;;;;;;;7.85;74.64;100769.56;10434980;28;20036;-91
2022/10/22 17:31:04;;;;;;;5.22;3.28;;;;;;;7.79;74.05;100756.09;10470156;28;20561;-90
2022/10/22 17:36:09;;;;;;;5.40;3.22;;;;;;;7.91;73.77;100758.66;10477376;28;20037;-94
2022/10/22 17:41:16;;;;;;;5.20;2.97;;;;;;;7.87;73.62;100747.44;10451945;28;20063;-87
2022/10/22 17:46:24;;;;;;;4.97;3.25;;;;;;;7.84;73.34;100737.88;10457799;28;20044;-89
2022/10/22 17:51:27;;;;;;;5.38;3.00;;;;;;;7.83;71.20;100729.94;10487053;28;20503;-84
2022/10/22 17:56:29;;;;;;;5.88;3.58;;;;;;;7.83;70.84;100724.47;10454103;28;20041;-79
2022/10/22 18:01:34;;;;;;;5.00;2.83;;;;;;;7.98;71.70;100716.38;10447450;28;20057;-77
2022/10/22 18:06:37;;;;;;;3.47;2.45;;;;;;;7.83;69.53;100706.16;10456850;28;20049;-74
2022/10/22 18:11:45;;;;;;;4.18;2.85;;;;;;;8.02;71.77;100701.13;10457118;28;20037;-78
2022/10/22 18:16:48;;;;;;;10.38;2.85;;;;;;;8.01;71.22;100694.00;10437357;28;20046;-79
2022/10/22 18:21:50;;;;;;;5.80;2.67;;;;;;;8.02;70.99;100692.91;10442207;28;20056;-78
2022/10/22 18:26:52;;;;;;;6.63;2.78;;;;;;;8.04;71.20;100689.91;10441102;28;20534;-77
2022/10/22 18:31:55;;;;;;;8.18;2.28;;;;;;;8.33;70.80;100680.25;10445677;28;20052;-79
2022/10/22 18:36:57;;;;;;;6.70;2.97;;;;;;;8.48;69.85;100678.72;10444058;28;20042;-82
2022/10/22 18:42:04;;;;;;;11.00;4.90;;;;;;;8.48;69.80;100671.31;10427283;28;20123;-81
2022/10/22 18:47:07;;;;;;;9.07;4.43;;;;;;;8.29;68.40;100661.91;10443755;28;20034;-85
2022/10/22 18:52:09;;;;;;;6.32;4.03;;;;;;;8.00;68.05;100656.00;10450212;28;20442;-80
2022/10/22 18:57:12;;;;;;;5.55;3.25;;;;;;;7.85;67.85;100651.25;10424964;28;20500;-83
2022/10/22 19:02:15;;;;;;;4.00;2.47;;;;;;;8.06;68.47;100642.09;10445010;28;20057;-82
2022/10/22 19:07:18;;;;;;;5.80;2.95;;;;;;;8.23;65.76;100641.09;10442300;28;20030;-76
2022/10/22 19:12:20;;;;;;;3.95;2.80;;;;;;;8.09;66.67;100636.09;10457721;28;20059;-74
2022/10/22 19:17:23;;;;;;;4.60;2.60;;;;;;;8.18;67.42;100628.25;10449091;28;20048;-83
2022/10/22 19:22:25;;;;;;;4.15;2.40;;;;;;;8.11;67.72;100622.16;10446660;28;20055;-92
2022/10/22 19:27:30;;;;;;;8.63;2.65;;;;;;;8.06;68.24;100625.72;10439392;28;20037;-79
2022/10/22 19:32:32;;;;;;;4.07;2.38;;;;;;;7.89;68.55;100608.66;10440320;28;20057;-79
2022/10/22 19:37:36;;;;;;;4.05;2.70;;;;;;;7.91;68.44;100594.75;10442383;28;20546;-80
2022/10/22 19:42:38;;;;;;;6.68;2.83;;;;;;;7.80;68.22;100594.66;10450036;28;20045;-83
2022/10/22 19:47:41;;;;;;;3.42;2.75;;;;;;;7.74;68.27;100587.53;10471732;28;20523;-80
2022/10/22 19:52:43;;;;;;;2.90;2.00;;;;;;;7.46;67.88;100590.59;10448660;28;20423;-76
2022/10/22 19:57:45;;;;;;;3.67;2.53;;;;;;;7.59;68.78;100600.25;10465602;28;20044;-76
2022/10/22 20:02:47;;;;;;;3.65;2.25;;;;;;;7.49;68.41;100595.56;10461079;28;20077;-75
2022/10/22 20:07:50;;;;;;;4.80;2.70;;;;;;;7.29;69.31;100595.38;10451330;28;20056;-75
2022/10/22 20:12:52;;;;;;;5.80;2.90;;;;;;;7.10;70.75;100595.78;10449715;28;20052;-77
2022/10/22 20:17:54;;;;;;;3.58;2.55;;;;;;;7.05;70.58;100584.00;10452630;28;20972;-81
2022/10/22 20:22:57;;;;;;;2.65;2.45;;;;;;;6.99;71.14;100583.13;10461127;28;20041;-78
2022/10/22 20:28:00;;;;;;;3.40;2.03;;;;;;;6.87;71.98;100580.56;10441468;28;20029;-78
2022/10/22 20:33:02;;;;;;;4.07;2.08;;;;;;;6.88;73.23;100574.03;10467469;28;20686;-78
2022/10/22 20:38:05;;;;;;;4.38;2.30;;;;;;;6.99;73.77;100577.69;10466959;28;20034;-75
2022/10/22 20:43:08;;;;;;;5.60;2.60;;;;;;;7.22;72.67;100577.34;10452365;28;20041;-80
2022/10/22 20:48:10;;;;;;;4.38;2.28;;;;;;;7.26;73.12;100572.16;10445244;28;20052;-79
2022/10/22 20:53:14;;;;;;;3.03;2.00;;;;;;;7.42;72.46;100560.28;10446938;28;20043;-80
2022/10/22 20:58:16;;;;;;;3.47;2.60;;;;;;;7.48;72.16;100566.63;10448445;28;20037;-77
2022/10/22 21:03:19;;;;;;;5.32;2.60;;;;;;;7.39;72.71;100549.91;10432991;28;20042;-78
2022/10/22 21:08:21;;;;;;;4.57;2.30;;;;;;;7.55;72.62;100543.44;10457595;28;20523;-78
2022/10/22 21:13:23;;;;;;;3.38;2.28;;;;;;;7.61;71.86;100529.81;10448586;28;20116;-78
2022/10/22 21:18:25;;;;;;;5.82;2.92;;;;;;;7.71;71.78;100530.72;10465154;28;20045;-78
2022/10/22 21:23:28;;;;;;;4.63;2.53;;;;;;;7.57;72.30;100513.16;10475571;28;20037;-76
2022/10/22 21:28:33;;;;;;;4.43;2.30;;;;;;;7.72;71.54;100515.16;10487750;28;20079;-80
2022/10/22 21:33:38;;;;;;;4.13;2.30;;;;;;;7.74;71.31;100507.50;10461630;28;20041;-77
2022/10/22 21:38:41;;;;;;;3.47;2.08;;;;;;;7.65;71.02;100509.94;10459069;28;20045;-77
2022/10/22 21:43:44;;;;;;;3.42;2.00;;;;;;;7.63;71.53;100500.34;10446538;28;20405;-76
2022/10/22 21:48:51;;;;;;;3.22;2.03;;;;;;;7.61;71.51;100478.75;10445980;28;20041;-76
2022/10/22 21:53:53;;;;;;;3.08;2.20;;;;;;;7.78;71.46;100470.38;10444576;28;20412;-76
2022/10/22 21:58:55;;;;;;;3.40;1.77;;;;;;;8.09;70.98;100457.66;10445000;28;20033;-75
2022/10/22 22:03:58;;;;;;;2.75;1.92;;;;;;;8.15;69.94;100459.28;10444501;28;20057;-73
2022/10/22 22:09:01;;;;;;;4.38;1.95;;;;;;;7.99;70.21;100455.72;10395372;28;20041;-74
2022/10/22 22:14:04;;;;;;;3.35;2.03;;;;;;;7.84;69.87;100444.75;10446248;28;20052;-76
2022/10/22 22:19:08;;;;;;;2.83;1.90;;;;;;;8.03;70.01;100440.44;10442161;28;20038;-76
2022/10/22 22:24:11;;;;;;;3.63;2.00;;;;;;;7.98;69.88;100437.66;10445367;28;20042;-74
2022/10/22 22:29:13;;;;;;;4.40;2.05;;;;;;;7.70;70.31;100430.75;10446687;28;20080;-74
2022/10/22 22:34:16;;;;;;;1.95;1.75;;;;;;;7.46;70.55;100424.94;10445459;28;20043;-74
2022/10/22 22:39:21;;;;;;;1.95;1.50;;;;;;;7.50;71.01;100423.28;10422820;28;20051;-74
2022/10/22 22:44:23;;;;;;;3.10;1.75;;;;;;;7.79;71.24;100417.38;10445140;28;20049;-74
2022/10/22 22:49:25;;;;;;;1.95;1.50;;;;;;;7.91;69.82;100407.03;10443992;28;20526;-75
2022/10/22 22:54:27;;;;;;;1.88;1.40;;;;;;;7.74;70.56;100399.06;10440834;28;20045;-74
2022/10/22 22:59:30;;;;;;;2.85;1.63;;;;;;;7.86;70.65;100396.13;10444607;28;20041;-74
2022/10/22 23:04:32;;;;;;;2.15;1.23;;;;;;;7.66;70.90;100390.59;10444906;28;20503;-74
2022/10/22 23:09:34;;;;;;;2.05;1.50;;;;;;;7.16;71.32;100387.38;10443943;28;20052;-74
2022/10/22 23:14:37;;;;;;;1.63;1.50;;;;;;;7.03;72.11;100376.91;10442738;28;20040;-74
2022/10/22 23:19:39;;;;;;;2.55;1.40;;;;;;;6.99;71.78;100373.09;10442808;28;20050;-74
2022/10/22 23:24:41;;;;;;;1.30;1.10;;;;;;;7.01;72.52;100373.63;10442250;28;20084;-74
2022/10/22 23:29:44;;;;;;;3.38;1.25;;;;;;;6.90;72.52;100366.47;10442670;28;20057;-74